createdAt,value
2022-11-14T00:02:12.179Z,19.80
2022-11-14T00:06:42.554Z,14.87
2022-11-14T00:11:12.847Z,17.00
2022-11-14T00:15:44.020Z,20.67
2022-11-14T00:20:14.584Z,19.77
2022-11-14T00:24:45.008Z,16.87
2022-11-14T00:29:16.006Z,16.90
2022-11-14T00:33:46.108Z,18.90
2022-11-14T00:38:16.454Z,19.37
2022-11-14T00:42:47.745Z,17.20
2022-11-14T00:47:18.170Z,20.13
2022-11-14T00:51:48.403Z,19.00
2022-11-14T00:56:19.087Z,18.93
2022-11-14T01:00:49.376Z,23.67
2022-11-14T01:05:19.737Z,22.27
2022-11-14T01:09:50.268Z,21.80
2022-11-14T01:14:20.670Z,23.93
2022-11-14T01:18:50.973Z,27.20
2022-11-14T01:23:21.291Z,21.97
2022-11-14T01:27:51.724Z,23.10
2022-11-14T01:32:22.215Z,22.83
2022-11-14T01:36:52.767Z,22.70
2022-11-14T01:41:23.350Z,24.93
2022-11-14T01:46:05.361Z,23.00
2022-11-14T01:50:35.676Z,26.50
2022-11-14T01:55:09.225Z,29.57
2022-11-14T01:59:53.774Z,22.87
2022-11-14T02:04:33.191Z,25.43
2022-11-14T02:09:06.152Z,24.13
2022-11-14T02:13:36.119Z,29.03
2022-11-14T02:18:06.856Z,23.00
2022-11-14T02:22:39.395Z,27.17
2022-11-14T02:27:11.656Z,30.17
2022-11-14T02:31:41.814Z,29.93
2022-11-14T02:36:11.847Z,27.20
2022-11-14T02:40:42.136Z,25.47
2022-11-14T02:45:13.313Z,27.53
2022-11-14T02:49:43.336Z,30.43
2022-11-14T02:54:13.589Z,30.33
2022-11-14T02:58:44.038Z,28.57
2022-11-14T03:03:14.363Z,22.87
2022-11-14T03:07:44.731Z,26.93
2022-11-14T03:12:19.260Z,41.27
2022-11-14T03:16:49.590Z,24.17
2022-11-14T03:21:21.433Z,30.47
2022-11-14T03:25:52.012Z,28.43
2022-11-14T03:30:22.223Z,22.73
2022-11-14T03:34:52.544Z,28.23
2022-11-14T03:39:22.838Z,27.07
2022-11-14T03:43:53.072Z,27.43
2022-11-14T03:48:23.114Z,25.20
2022-11-14T03:52:53.497Z,24.90
2022-11-14T03:57:23.808Z,23.40
2022-11-14T04:01:53.997Z,23.87
2022-11-14T04:06:24.628Z,28.40
2022-11-14T04:10:55.063Z,25.10
2022-11-14T04:15:25.334Z,24.53
2022-11-14T04:19:55.745Z,26.90
2022-11-14T04:24:26.061Z,30.77
2022-11-14T04:28:56.353Z,28.40
2022-11-14T04:33:27.011Z,29.03
2022-11-14T04:37:57.072Z,26.67
2022-11-14T04:42:27.151Z,28.53
2022-11-14T04:46:57.441Z,29.43
2022-11-14T04:51:27.615Z,28.97
2022-11-14T04:55:57.581Z,28.57
2022-11-14T05:00:27.484Z,28.67
2022-11-14T05:04:57.539Z,30.30
2022-11-14T05:09:27.528Z,24.90
2022-11-14T05:13:57.577Z,28.20
2022-11-14T05:18:27.843Z,28.27
2022-11-14T05:22:58.480Z,27.00
2022-11-14T05:27:29.532Z,28.90
2022-11-14T05:32:00.690Z,24.17
2022-11-14T05:36:30.767Z,26.23
2022-11-14T05:41:05.436Z,25.53
2022-11-14T05:45:35.553Z,28.80
2022-11-14T05:50:06.185Z,25.63
2022-11-14T05:54:36.156Z,25.50
2022-11-14T05:59:06.199Z,25.93
2022-11-14T06:03:44.975Z,26.50
2022-11-14T06:08:15.249Z,25.40
2022-11-14T06:12:45.535Z,26.00
2022-11-14T06:17:15.281Z,30.40
2022-11-14T06:21:45.221Z,24.83
2022-11-14T06:26:32.503Z,26.27
2022-11-14T06:31:04.481Z,26.93
2022-11-14T06:35:35.357Z,26.73
2022-11-14T06:40:05.926Z,26.17
2022-11-14T06:44:36.268Z,24.87
2022-11-14T06:49:06.597Z,24.47
2022-11-14T06:53:37.449Z,29.83
2022-11-14T06:58:07.430Z,34.80
2022-11-14T07:02:37.256Z,29.07
2022-11-14T07:07:07.392Z,27.27
2022-11-14T07:11:37.739Z,25.57
2022-11-14T07:16:07.804Z,24.10
2022-11-14T07:20:37.888Z,25.13
2022-11-14T07:25:08.199Z,21.53
2022-11-14T07:29:38.083Z,22.57
2022-11-14T07:34:09.015Z,22.30
2022-11-14T07:38:40.028Z,26.10
2022-11-14T07:43:10.241Z,29.07
2022-11-14T07:47:40.455Z,23.80
2022-11-14T07:52:10.851Z,27.67
2022-11-14T07:56:40.863Z,22.80
2022-11-14T08:01:12.736Z,25.37
2022-11-14T08:05:43.099Z,28.03
2022-11-14T08:10:14.085Z,21.93
2022-11-14T08:14:44.250Z,18.50
2022-11-14T08:19:16.605Z,20.07
2022-11-14T08:23:46.789Z,20.23
2022-11-14T08:28:16.545Z,22.73
2022-11-14T08:32:46.463Z,19.20
2022-11-14T08:37:16.507Z,18.90
2022-11-14T08:41:46.424Z,20.87
2022-11-14T08:46:16.316Z,17.67
2022-11-14T08:50:46.328Z,14.82
2022-11-14T08:55:16.728Z,11.60
2022-11-14T08:59:46.965Z,14.88
2022-11-14T09:04:17.513Z,16.45
2022-11-14T09:08:48.016Z,14.27
2022-11-14T09:13:18.318Z,16.15
2022-11-14T09:17:48.704Z,13.82
2022-11-14T09:22:19.273Z,13.13
2022-11-14T09:26:56.405Z,11.27
2022-11-14T09:31:27.226Z,12.73
2022-11-14T09:36:02.864Z,12.77
2022-11-14T09:41:08.268Z,16.13
2022-11-14T09:45:44.442Z,12.50
2022-11-14T09:50:24.408Z,13.57
2022-11-14T09:54:59.426Z,10.50
2022-11-14T09:59:29.592Z,12.38
2022-11-14T10:04:14.647Z,12.70
2022-11-14T10:08:53.931Z,11.23
2022-11-14T10:13:38.495Z,10.15
2022-11-14T10:18:27.811Z,14.75
2022-11-14T10:23:13.403Z,12.93
2022-11-14T10:27:56.575Z,11.45
2022-11-14T10:32:50.251Z,13.32
2022-11-14T10:37:27.907Z,12.38
2022-11-14T10:42:08.864Z,11.80
2022-11-14T10:46:49.958Z,11.77
2022-11-14T10:51:41.280Z,13.48
2022-11-14T10:56:12.848Z,13.18
2022-11-14T11:00:43.388Z,11.57
2022-11-14T11:05:20.113Z,16.05
2022-11-14T11:10:18.244Z,15.68
2022-11-14T11:15:08.064Z,12.75
2022-11-14T11:19:42.341Z,12.30
2022-11-14T11:24:12.778Z,18.80
2022-11-14T11:28:42.889Z,11.80
2022-11-14T11:33:38.135Z,14.90
2022-11-14T11:38:14.661Z,12.35
2022-11-14T11:48:22.422Z,16.55
2022-11-14T11:53:20.268Z,16.85
2022-11-14T11:58:11.994Z,16.20
2022-11-14T12:02:49.795Z,15.23
2022-11-14T12:07:25.761Z,18.60
2022-11-14T12:12:03.429Z,13.93
2022-11-14T12:16:55.486Z,16.52
2022-11-14T12:21:58.812Z,18.97
2022-11-14T12:26:59.053Z,16.55
2022-11-14T12:31:34.405Z,24.75
2022-11-14T12:36:13.672Z,21.30
2022-11-14T12:40:56.838Z,23.25
2022-11-14T12:45:36.277Z,32.90
2022-11-14T12:50:31.441Z,15.50
2022-11-14T12:55:01.532Z,20.67
2022-11-14T13:00:06.270Z,21.50
2022-11-14T13:04:42.797Z,14.87
2022-11-14T13:09:34.278Z,17.77
2022-11-14T13:14:26.938Z,15.73
2022-11-14T13:19:20.495Z,15.90
2022-11-14T13:23:50.801Z,12.67
2022-11-14T13:28:36.214Z,14.57
2022-11-14T13:33:06.382Z,13.90
2022-11-14T13:38:18.075Z,13.37
2022-11-14T13:43:20.712Z,15.07
2022-11-14T13:48:15.785Z,12.03
2022-11-14T13:52:48.445Z,14.83
2022-11-14T13:57:34.085Z,15.80
2022-11-14T14:02:04.205Z,23.07
2022-11-14T14:06:52.982Z,28.80
2022-11-14T14:11:40.168Z,15.77
2022-11-14T14:16:50.575Z,16.07
2022-11-14T14:21:35.771Z,14.90
2022-11-14T14:26:23.439Z,15.07
2022-11-14T14:31:16.918Z,12.40
2022-11-14T14:35:52.866Z,13.73
2022-11-14T14:40:29.492Z,11.70
2022-11-14T14:45:00.164Z,12.73
2022-11-14T14:49:37.744Z,13.33
2022-11-14T14:54:19.900Z,15.63
2022-11-14T14:58:49.977Z,18.97
2022-11-14T15:03:21.366Z,14.67
2022-11-14T15:07:56.075Z,13.10
2022-11-14T15:12:29.231Z,15.23
2022-11-14T15:17:00.433Z,17.37
2022-11-14T15:21:30.905Z,13.57
2022-11-14T15:26:03.171Z,13.67
2022-11-14T15:30:37.109Z,13.80
2022-11-14T15:35:29.210Z,13.53
2022-11-14T15:40:22.512Z,11.17
2022-11-14T15:44:52.806Z,14.03
2022-11-14T15:49:26.327Z,14.13
2022-11-14T15:53:56.456Z,15.27
2022-11-14T15:58:28.639Z,15.33
2022-11-14T16:02:59.420Z,12.30
2022-11-14T16:07:30.100Z,12.17
2022-11-14T16:12:00.453Z,13.40
2022-11-14T16:16:30.693Z,11.73
2022-11-14T16:21:01.158Z,13.23
2022-11-14T16:25:32.129Z,14.90
2022-11-14T16:30:02.309Z,14.90
2022-11-14T16:34:32.588Z,13.87
2022-11-14T16:39:04.041Z,11.83
2022-11-14T16:43:34.403Z,13.60
2022-11-14T16:48:05.036Z,15.60
2022-11-14T16:52:35.286Z,14.13
2022-11-14T16:57:05.562Z,15.40
2022-11-14T17:01:35.982Z,13.37
2022-11-14T17:06:09.121Z,12.60
2022-11-14T17:10:46.733Z,15.20
2022-11-14T17:15:17.154Z,14.33
2022-11-14T17:19:47.550Z,25.63
2022-11-14T17:24:17.995Z,17.70
2022-11-14T17:28:48.386Z,23.90
2022-11-14T17:33:18.654Z,12.70
2022-11-14T17:37:48.913Z,14.13
2022-11-14T17:42:19.221Z,16.47
2022-11-14T17:46:49.606Z,15.37
2022-11-14T17:51:19.849Z,11.90
2022-11-14T17:55:59.920Z,13.77
2022-11-14T18:00:30.293Z,14.20
2022-11-14T18:05:00.536Z,14.43
2022-11-14T18:09:30.900Z,14.70
2022-11-14T18:14:01.228Z,20.53
2022-11-14T18:18:33.540Z,20.53
2022-11-14T18:23:03.519Z,13.80
2022-11-14T18:27:34.025Z,33.60
2022-11-14T18:32:04.415Z,22.50
2022-11-14T18:36:34.391Z,32.30
2022-11-14T18:41:09.638Z,29.03
2022-11-14T18:45:39.565Z,32.17
2022-11-14T18:50:09.619Z,24.03
2022-11-14T18:54:40.163Z,24.37
2022-11-14T18:59:10.450Z,16.73
2022-11-14T19:03:40.724Z,20.90
2022-11-14T19:08:11.164Z,21.93
2022-11-14T19:12:42.639Z,28.23
2022-11-14T19:17:14.048Z,26.47
2022-11-14T19:21:44.026Z,23.67
2022-11-14T19:26:14.287Z,48.33
2022-11-14T19:30:44.081Z,22.73
2022-11-14T19:35:19.837Z,24.77
2022-11-14T19:39:55.142Z,58.17
2022-11-14T19:44:25.158Z,20.70
2022-11-14T19:48:59.544Z,20.87
2022-11-14T19:53:30.945Z,16.63
2022-11-14T19:58:01.090Z,13.47
2022-11-14T20:02:31.377Z,13.77
2022-11-14T20:07:01.617Z,13.73
2022-11-14T20:11:31.766Z,13.97
2022-11-14T20:16:18.120Z,14.57
2022-11-14T20:20:48.508Z,12.07
2022-11-14T20:25:18.409Z,13.17
2022-11-14T20:29:48.340Z,12.73
2022-11-14T20:34:18.246Z,28.83
2022-11-14T20:38:48.804Z,13.63
2022-11-14T20:43:18.778Z,12.43
2022-11-14T20:47:48.645Z,14.63
2022-11-14T20:52:18.716Z,17.80
2022-11-14T20:56:48.662Z,18.37
2022-11-14T21:01:19.158Z,13.90
2022-11-14T21:05:49.710Z,16.30
2022-11-14T21:10:38.072Z,18.53
2022-11-14T21:15:08.938Z,15.47
2022-11-14T21:19:38.982Z,22.83
2022-11-14T21:24:14.495Z,13.40
2022-11-14T21:28:47.435Z,14.93
2022-11-14T21:33:17.538Z,15.37
2022-11-14T21:37:47.421Z,17.93
2022-11-14T21:42:18.749Z,14.87
2022-11-14T21:46:49.665Z,20.03
2022-11-14T21:51:22.709Z,15.90
2022-11-14T21:55:52.615Z,20.20
2022-11-14T22:00:22.752Z,16.40
2022-11-14T22:04:52.568Z,16.87
2022-11-14T22:09:22.829Z,15.67
2022-11-14T22:13:52.935Z,18.03
2022-11-14T22:18:22.907Z,19.30
2022-11-14T22:22:56.052Z,14.70
2022-11-14T22:27:26.456Z,17.13
2022-11-14T22:31:56.823Z,16.40
2022-11-14T22:36:27.635Z,16.40
2022-11-14T22:40:58.845Z,14.57
2022-11-14T22:45:28.995Z,15.83
2022-11-14T22:49:58.967Z,14.70
2022-11-14T22:54:29.200Z,20.43
2022-11-14T22:59:00.112Z,21.27
2022-11-14T23:03:30.220Z,16.87
2022-11-14T23:07:59.938Z,16.67
2022-11-14T23:12:30.047Z,15.50
2022-11-14T23:17:00.243Z,21.70
2022-11-14T23:21:33.254Z,16.23
2022-11-14T23:26:05.428Z,17.60
2022-11-14T23:30:36.081Z,17.97
2022-11-14T23:35:07.024Z,23.93
2022-11-14T23:39:37.395Z,18.40
2022-11-14T23:44:07.457Z,21.43
2022-11-14T23:48:37.379Z,25.60
2022-11-14T23:53:07.627Z,30.23
2022-11-14T23:57:37.704Z,20.83
